Flight Track Log - Related Links

Times and Time Zones

All times are in EDT time to prevent confusion due to time zone crossing. See the DAL1979 flight status page for this flight to view local times or setup timezone preferences in your user account.


Time Position Orientation Groundspeed Altitude Reporting Facility
EDT Latitude Longitude Course Direction KTS MPH feet Rate Location/Type
Sun 11:58:17 AM 44.8560 -93.2320 170° South 164 189 2,000  Level FlightAware ADS-B
Sun 11:58:47 AM 44.8360 -93.2100 142° Southeast 205 236 2,700 1,636 Climbing FlightAware ADS-B
Sun 11:59:12 AM 44.8180 -93.1880 139° Southeast 213 245 3,500 2,073 Climbing FlightAware ADS-B
Sun 11:59:42 AM 44.7970 -93.1580 135° Southeast 234 269 4,600 2,133 Climbing FlightAware ADS-B
Sun 11:59:57 AM 44.7830 -93.1380 135° Southeast 252 290 5,100 2,250 Climbing FlightAware ADS-B
Sun 12:00:22 PM 44.7640 -93.1080 132° Southeast 260 299 6,100 2,291 Climbing FlightAware ADS-B
Sun 12:00:52 PM 44.7410 -93.0700 130° Southeast 275 316 7,200 2,100 Climbing FlightAware ADS-B
Sun 12:01:22 PM 44.7140 -93.0270 131° Southeast 291 335 8,200 2,250 Climbing FlightAware ADS-B
Sun 12:01:32 PM 44.7050 -93.0130 132° Southeast 292 336 8,700 2,550 Climbing FlightAware ADS-B
Sun 12:02:02 PM 44.6770 -92.9710 133° Southeast 295 339 9,900 2,057 Climbing FlightAware ADS-B
Sun 12:02:42 PM 44.6400 -92.9120 131° Southeast 320 368 11,100 1,412 Climbing FlightAware ADS-B
Sun 12:03:27 PM 44.5910 -92.8360 132° Southeast 367 422 11,900 1,412 Climbing FlightAware ADS-B
Sun 12:04:07 PM 44.5430 -92.7610 132° Southeast 383 441 13,100 2,118 Climbing FlightAware ADS-B
Sun 12:04:52 PM 44.4920 -92.6810 132° Southeast 386 444 14,900 2,753 Climbing FlightAware ADS-B
Sun 12:05:32 PM 44.4440 -92.6070 132° Southeast 374 430 17,000 2,612 Climbing FlightAware ADS-B
Sun 12:06:17 PM 44.3900 -92.5240 132° Southeast 379 436 18,600 2,118 Climbing FlightAware ADS-B
Sun 12:06:57 PM 44.3450 -92.4520 131° Southeast 381 438 20,000 1,765 Climbing FlightAware ADS-B
Sun 12:07:42 PM 44.3020 -92.3590 123° Southeast 398 458 21,100 1,059 Climbing FlightAware ADS-B
Sun 12:08:22 PM 44.2630 -92.2670 121° Southeast 422 486 21,500 900 Climbing FlightAware ADS-B
Sun 12:09:02 PM 44.2220 -92.1720 121° Southeast 434 499 22,300 1,341 Climbing FlightAware ADS-B
Sun 12:09:47 PM 44.1730 -92.0610 122° Southeast 441 507 23,400 1,412 Climbing FlightAware ADS-B
Sun 12:10:27 PM 44.1310 -91.9640 121° Southeast 447 514 24,300 1,271 Climbing FlightAware ADS-B
Sun 12:11:12 PM 44.0840 -91.8560 121° Southeast 452 520 25,200 1,200 Climbing FlightAware ADS-B
Sun 12:11:52 PM 44.0390 -91.7540 122° Southeast 456 525 26,000 1,200 Climbing FlightAware ADS-B
Sun 12:12:32 PM 43.9950 -91.6550 122° Southeast 461 531 26,800 1,059 Climbing FlightAware ADS-B
Sun 12:13:17 PM 43.9440 -91.5390 121° Southeast 464 534 27,500 918 Climbing FlightAware ADS-B
Sun 12:13:57 PM 43.8930 -91.4420 126° Southeast 467 537 28,100 1,059 Climbing FlightAware ADS-B
Sun 12:14:42 PM 43.8280 -91.3470 133° Southeast 465 535 29,000 1,200 Climbing FlightAware ADS-B
Sun 12:15:22 PM 43.7670 -91.2630 135° Southeast 463 533 29,800 1,425 Climbing FlightAware ADS-B
Sun 12:16:02 PM 43.7050 -91.1770 135° Southeast 454 522 30,900 1,341 Climbing FlightAware ADS-B
Sun 12:16:47 PM 43.6400 -91.0860 135° Southeast 453 521 31,700 1,059 Climbing FlightAware ADS-B
Sun 12:17:27 PM 43.5810 -91.0050 135° Southeast 451 519 32,400 900 Climbing FlightAware ADS-B
Sun 12:18:07 PM 43.5230 -90.9240 135° Southeast 451 519 32,900 424 Climbing FlightAware ADS-B
Sun 12:18:52 PM 43.4470 -90.8400 141° Southeast 453 521 33,000 71 Climbing FlightAware ADS-B
Sun 12:19:32 PM 43.3720 -90.8040 161° South 455 524 33,000  Level FlightAware ADS-B
Sun 12:20:17 PM 43.2780 -90.7740 167° South 455 524 33,000  Level FlightAware ADS-B
Sun 12:20:57 PM 43.1970 -90.7480 167° South 452 520 33,000  Level FlightAware ADS-B
Sun 12:21:37 PM 43.1150 -90.7220 167° South 451 519 33,000  Level FlightAware ADS-B
Sun 12:22:22 PM 43.0200 -90.6900 166° South 449 517 33,000  Level FlightAware ADS-B
Sun 12:23:02 PM 42.9420 -90.6610 165° South 449 517 33,000  Level FlightAware ADS-B
Sun 12:23:42 PM 42.8600 -90.6310 165° South 448 516 33,000  Level FlightAware ADS-B
Sun 12:24:27 PM 42.7730 -90.5990 165° South 447 514 33,000  Level FlightAware ADS-B
Sun 12:25:07 PM 42.6920 -90.5700 165° South 448 516 33,000  Level FlightAware ADS-B
Sun 12:25:52 PM 42.6030 -90.5390 166° South 450 518 33,000  Level FlightAware ADS-B
Sun 12:26:32 PM 42.5230 -90.5100 165° South 451 519 33,000  Level FlightAware ADS-B
Sun 12:27:17 PM 42.4310 -90.4780 166° South 452 520 33,000  Level FlightAware ADS-B
Sun 12:27:57 PM 42.3480 -90.4490 166° South 451 519 33,000  Level FlightAware ADS-B
Sun 12:28:37 PM 42.2700 -90.4210 165° South 451 519 33,000  Level FlightAware ADS-B
Sun 12:29:22 PM 42.1740 -90.3870 165° South 451 519 33,000  Level FlightAware ADS-B
Sun 12:29:57 PM 42.1060 -90.3630 165° South 450 518 33,000  Level FlightAware ADS-B
Sun 12:30:42 PM 42.0140 -90.3310 166° South 448 516 33,000  Level FlightAware ADS-B
Sun 12:31:27 PM 41.9250 -90.3000 165° South 444 511 33,000  Level FlightAware ADS-B
Sun 12:32:07 PM 41.8440 -90.2700 165° South 443 510 33,000  Level FlightAware ADS-B
Sun 12:32:52 PM 41.7620 -90.2140 153° Southeast 449 517 33,000  Level FlightAware ADS-B
Sun 12:33:32 PM 41.6920 -90.1560 148° Southeast 447 514 33,000  Level FlightAware ADS-B
Sun 12:34:12 PM 41.6220 -90.0990 149° Southeast 447 514 33,000  Level FlightAware ADS-B
Sun 12:34:52 PM 41.5530 -90.0420 148° Southeast 447 514 33,000  Level FlightAware ADS-B
Sun 12:35:37 PM 41.4700 -89.9750 149° Southeast 449 517 33,000  Level FlightAware ADS-B
Sun 12:36:22 PM 41.3910 -89.9110 149° Southeast 452 520 33,000  Level FlightAware ADS-B
Sun 12:37:02 PM 41.3210 -89.8550 149° Southeast 457 526 33,000 -675 Level FlightAware ADS-B
Sun 12:37:42 PM 41.2450 -89.7940 149° Southeast 466 536 32,100 -706 Descending FlightAware ADS-B
Sun 12:38:27 PM 41.1640 -89.7290 149° Southeast 478 550 32,000 -75 Descending FlightAware ADS-B
Sun 12:39:02 PM 41.0950 -89.6730 149° Southeast 478 550 32,000 -300 Level FlightAware ADS-B
Sun 12:39:47 PM 41.0130 -89.6090 149° Southeast 477 549 31,600 -667 Descending FlightAware ADS-B
Sun 12:40:32 PM 40.9240 -89.5390 149° Southeast 480 552 31,000 -424 Descending FlightAware ADS-B
Sun 12:41:12 PM 40.8470 -89.4790 149° Southeast 483 556 31,000  Level FlightAware ADS-B
Sun 12:41:57 PM 40.7610 -89.4120 149° Southeast 484 557 31,000  Level FlightAware ADS-B
Sun 12:42:37 PM 40.6850 -89.3520 149° Southeast 483 556 31,000  Level FlightAware ADS-B
Sun 12:43:22 PM 40.6000 -89.2860 149° Southeast 482 555 31,000  Level FlightAware ADS-B
Sun 12:43:52 PM 40.5440 -89.2420 149° Southeast 481 554 31,000  Level FlightAware ADS-B
Sun 12:44:42 PM 40.4470 -89.1670 150° Southeast 479 551 31,000  Level FlightAware ADS-B
Sun 12:45:27 PM 40.3560 -89.0970 150° Southeast 476 548 31,000  Level FlightAware ADS-B
Sun 12:46:07 PM 40.2800 -89.0390 150° Southeast 474 545 31,000  Level FlightAware ADS-B
Sun 12:46:42 PM 40.2160 -88.9900 150° Southeast 471 542 31,000  Level FlightAware ADS-B
Sun 12:47:32 PM 40.1210 -88.9170 150° Southeast 469 540 31,000  Level FlightAware ADS-B
Sun 12:48:12 PM 40.0490 -88.8630 150° Southeast 467 537 31,000  Level FlightAware ADS-B
Sun 12:49:22 PM 39.9210 -88.7650 150° Southeast 463 533 31,000  Level FlightAware ADS-B
Sun 12:49:57 PM 39.8520 -88.7130 150° Southeast 462 532 31,000  Level FlightAware ADS-B
Sun 12:50:47 PM 39.7580 -88.6420 150° Southeast 460 529 31,000  Level FlightAware ADS-B
Sun 12:51:32 PM 39.6740 -88.5790 150° Southeast 471 542 31,000  Level FlightAware ADS-B
Sun 12:52:07 PM 39.6160 -88.5340 149° Southeast 471 542 31,000  Level FlightAware ADS-B
Sun 12:52:47 PM 39.5520 -88.4840 149° Southeast 471 542 31,000  Level FlightAware ADS-B
Sun 12:53:37 PM 39.4390 -88.4030 151° Southeast 472 543 31,000  Level FlightAware ADS-B
Sun 12:54:12 PM 39.3740 -88.3550 150° Southeast 470 541 31,000  Level FlightAware ADS-B
Sun 12:54:57 PM 39.2860 -88.2890 150° Southeast 469 540 31,000  Level FlightAware ADS-B
Sun 12:55:42 PM 39.2030 -88.2280 150° Southeast 468 539 31,000  Level FlightAware ADS-B
Sun 12:56:17 PM 39.1370 -88.1790 150° Southeast 468 539 31,000  Level FlightAware ADS-B
Sun 12:57:07 PM 39.0480 -88.1130 150° Southeast 468 539 31,000  Level FlightAware ADS-B
Sun 12:57:52 PM 38.9580 -88.0470 150° Southeast 468 539 31,000  Level FlightAware ADS-B
Sun 12:58:32 PM 38.8820 -87.9920 151° Southeast 468 539 31,000  Level FlightAware ADS-B
Sun 12:59:12 PM 38.8060 -87.9360 150° Southeast 467 537 31,000  Level FlightAware ADS-B
Sun 12:59:57 PM 38.7220 -87.8750 150° Southeast 467 537 31,000  Level FlightAware ADS-B
Sun 01:00:37 PM 38.6480 -87.8210 150° Southeast 467 537 31,000  Level FlightAware ADS-B
Sun 01:01:17 PM 38.5710 -87.7650 150° Southeast 467 537 31,000  Level FlightAware ADS-B
Sun 01:02:02 PM 38.4880 -87.7040 150° Southeast 467 537 31,000  Level FlightAware ADS-B
Sun 01:02:42 PM 38.4100 -87.6480 151° Southeast 466 536 31,000  Level FlightAware ADS-B
Sun 01:03:27 PM 38.3270 -87.5880 150° Southeast 465 535 31,000  Level FlightAware ADS-B
Sun 01:04:07 PM 38.2520 -87.5340 151° Southeast 465 535 31,000  Level FlightAware ADS-B
Sun 01:04:52 PM 38.1660 -87.4720 150° Southeast 465 535 31,000  Level FlightAware ADS-B
Sun 01:05:27 PM 38.1010 -87.4260 151° Southeast 466 536 31,000  Level FlightAware ADS-B
Sun 01:06:12 PM 38.0100 -87.3810 159° South 468 539 31,000  Level FlightAware ADS-B
Sun 01:06:52 PM 37.9240 -87.3690 174° South 469 540 31,000  Level FlightAware ADS-B
Sun 01:07:37 PM 37.8270 -87.3590 175° South 470 541 31,000  Level FlightAware ADS-B
Sun 01:08:22 PM 37.7290 -87.3480 175° South 470 541 31,000  Level FlightAware ADS-B
Sun 01:09:02 PM 37.6420 -87.3380 175° South 469 540 31,000  Level FlightAware ADS-B
Sun 01:09:42 PM 37.5570 -87.3280 175° South 469 540 31,000  Level FlightAware ADS-B
Sun 01:10:27 PM 37.4600 -87.3170 175° South 469 540 31,000  Level FlightAware ADS-B
Sun 01:10:47 PM 37.4150 -87.3120 175° South 468 539 31,000  Level FlightAware ADS-B
Sun 01:11:37 PM 37.3070 -87.2990 175° South 469 540 31,000  Level FlightAware ADS-B
Sun 01:12:17 PM 37.2190 -87.2890 175° South 469 540 31,000  Level FlightAware ADS-B
Sun 01:13:02 PM 37.1210 -87.2780 175° South 470 541 31,000  Level FlightAware ADS-B
Sun 01:13:42 PM 37.0390 -87.2690 175° South 470 541 31,000  Level FlightAware ADS-B
Sun 01:14:22 PM 36.9490 -87.2580 174° South 469 540 31,000  Level FlightAware ADS-B
Sun 01:15:02 PM 36.8630 -87.2490 175° South 467 537 31,000  Level FlightAware ADS-B
Sun 01:15:47 PM 36.7680 -87.2380 175° South 465 535 31,000  Level FlightAware ADS-B
Sun 01:16:17 PM 36.7080 -87.2310 175° South 464 534 31,000  Level FlightAware ADS-B
Sun 01:16:57 PM 36.6180 -87.2210 175° South 464 534 31,000  Level FlightAware ADS-B
Sun 01:17:37 PM 36.5300 -87.2110 175° South 463 533 31,000  Level FlightAware ADS-B
Sun 01:18:22 PM 36.4320 -87.2000 175° South 462 532 31,000  Level FlightAware ADS-B
Sun 01:19:02 PM 36.3460 -87.1900 175° South 461 531 31,000  Level FlightAware ADS-B
Sun 01:19:47 PM 36.2520 -87.1800 175° South 460 529 31,000  Level FlightAware ADS-B
Sun 01:20:27 PM 36.1670 -87.1700 175° South 460 529 31,000  Level FlightAware ADS-B
Sun 01:21:07 PM 36.0820 -87.1600 175° South 461 531 31,000  Level FlightAware ADS-B
Sun 01:21:52 PM 35.9830 -87.1490 175° South 464 534 31,000  Level FlightAware ADS-B
Sun 01:22:32 PM 35.9000 -87.1400 175° South 467 537 31,000  Level FlightAware ADS-B
Sun 01:23:17 PM 35.8030 -87.1290 175° South 469 540 31,000  Level FlightAware ADS-B
Sun 01:23:57 PM 35.7210 -87.1200 175° South 471 542 31,000  Level FlightAware ADS-B
Sun 01:24:37 PM 35.6280 -87.1090 175° South 473 544 31,000  Level FlightAware ADS-B
Sun 01:25:22 PM 35.5290 -87.0980 175° South 475 547 31,000  Level FlightAware ADS-B
Sun 01:26:02 PM 35.4420 -87.0880 175° South 477 549 31,000  Level FlightAware ADS-B
Sun 01:26:47 PM 35.3450 -87.0780 175° South 479 551 31,000  Level FlightAware ADS-B
Sun 01:27:27 PM 35.2610 -87.0680 174° South 480 552 31,000  Level FlightAware ADS-B
Sun 01:28:07 PM 35.1740 -87.0570 174° South 480 552 31,000  Level FlightAware ADS-B
Sun 01:28:52 PM 35.0780 -87.0470 175° South 480 552 31,000  Level FlightAware ADS-B
Sun 01:29:42 PM 34.9600 -87.0340 175° South 480 552 31,000  Level FlightAware ADS-B
Sun 01:30:27 PM 34.8590 -87.0230 175° South 479 551 31,000  Level FlightAware ADS-B
Sun 01:31:07 PM 34.7850 -87.0130 174° South 479 551 31,000  Level FlightAware ADS-B
Sun 01:31:47 PM 34.7100 -87.0040 174° South 479 551 31,000  Level FlightAware ADS-B
Sun 01:32:37 PM 34.6160 -86.9920 174° South 479 551 31,000  Level FlightAware ADS-B
Sun 01:33:17 PM 34.5410 -86.9820 174° South 479 551 31,000  Level FlightAware ADS-B
Sun 01:33:57 PM 34.4660 -86.9730 174° South 479 551 31,000  Level FlightAware ADS-B
Sun 01:34:37 PM 34.3910 -86.9630 174° South 479 551 31,000  Level FlightAware ADS-B
Sun 01:35:17 PM 34.3160 -86.9540 174° South 479 551 31,000  Level FlightAware ADS-B
Sun 01:36:07 PM 34.2220 -86.9420 174° South 479 551 31,000  Level FlightAware ADS-B
Sun 01:36:47 PM 34.1480 -86.9320 174° South 479 551 31,000  Level FlightAware ADS-B
Sun 01:37:27 PM 34.0730 -86.9230 174° South 479 551 31,000  Level FlightAware ADS-B
Sun 01:38:27 PM 33.8700 -86.9150 178° South 469 540 31,000  Level FlightAware ADS-B
Sun 01:39:07 PM 33.7310 -86.9010 175° South 466 536 31,000  Level FlightAware ADS-B
Sun 01:39:47 PM 33.6470 -86.8630 159° South 483 556 31,000  Level FlightAware ADS-B
Sun 01:40:37 PM 33.5680 -86.7880 142° Southeast 482 555 31,000  Level FlightAware ADS-B
Sun 01:41:27 PM 33.4760 -86.6910 139° Southeast 483 556 31,000  Level FlightAware ADS-B
Sun 01:42:07 PM 33.4090 -86.6210 139° Southeast 482 555 31,000  Level FlightAware ADS-B
Sun 01:42:52 PM 33.3340 -86.5430 139° Southeast 483 556 31,000  Level FlightAware ADS-B
Sun 01:43:27 PM 33.2810 -86.4880 139° Southeast 483 556 31,000  Level FlightAware ADS-B
Sun 01:44:17 PM 33.1890 -86.3920 139° Southeast 481 554 31,000  Level FlightAware ADS-B
Sun 01:44:52 PM 33.1320 -86.3320 139° Southeast 482 555 31,000  Level FlightAware ADS-B
Sun 01:45:37 PM 33.0650 -86.2630 139° Southeast 482 555 31,000  Level FlightAware ADS-B
Sun 01:46:22 PM 32.9790 -86.1750 139° Southeast 484 557 31,000  Level FlightAware ADS-B
Sun 01:47:02 PM 32.9110 -86.1030 138° Southeast 486 559 31,000  Level FlightAware ADS-B
Sun 01:47:47 PM 32.8460 -86.0240 134° Southeast 488 562 31,000  Level FlightAware ADS-B
Sun 01:48:27 PM 32.7920 -85.9580 134° Southeast 488 562 31,000  Level FlightAware ADS-B
Sun 01:49:07 PM 32.7190 -85.8520 129° Southeast 491 565 31,000  Level FlightAware ADS-B
Sun 01:49:52 PM 32.6610 -85.7720 131° Southeast 491 565 31,000  Level FlightAware ADS-B
Sun 01:50:32 PM 32.6100 -85.7030 131° Southeast 491 565 31,000  Level FlightAware ADS-B
Sun 01:51:27 PM 32.5150 -85.5750 131° Southeast 494 568 31,000  Level FlightAware ADS-B
Sun 01:52:07 PM 32.4640 -85.5060 131° Southeast 494 568 31,000  Level FlightAware ADS-B
Sun 01:52:47 PM 32.4130 -85.4360 131° Southeast 494 568 31,000  Level FlightAware ADS-B
Sun 01:53:37 PM 32.3490 -85.3500 131° Southeast 494 568 31,000  Level FlightAware ADS-B
Sun 01:54:17 PM 32.2980 -85.2800 131° Southeast 494 568 31,000  Level FlightAware ADS-B
Sun 01:54:57 PM 32.2470 -85.2110 131° Southeast 494 568 31,000  Level FlightAware ADS-B
Sun 01:55:37 PM 32.1970 -85.1420 131° Southeast 494 568 31,000  Level FlightAware ADS-B
Sun 01:56:17 PM 32.1460 -85.0720 131° Southeast 494 568 31,000  Level FlightAware ADS-B
Sun 01:57:07 PM 32.0820 -84.9860 131° Southeast 494 568 31,000  Level FlightAware ADS-B
Sun 01:57:47 PM 32.0310 -84.9170 131° Southeast 494 568 31,000  Level FlightAware ADS-B
Sun 01:58:27 PM 31.9800 -84.8470 131° Southeast 494 568 31,000  Level FlightAware ADS-B
Sun 01:59:07 PM 31.9290 -84.7780 131° Southeast 494 568 31,000  Level FlightAware ADS-B
Sun 01:59:47 PM 31.8780 -84.7090 131° Southeast 494 568 31,000  Level FlightAware ADS-B
Sun 02:00:37 PM 31.8140 -84.6230 131° Southeast 494 568 31,000  Level FlightAware ADS-B
Sun 02:01:19 PM 31.6336 -84.3908 131° Southeast 494 568 31,000  Level Jacksonville Center
Sun 02:02:19 PM 31.5411 -84.2697 132° Southeast 494 568 31,000 -350 Level Jacksonville Center
Sun 02:03:19 PM 31.4483 -84.1467 131° Southeast 499 574 30,300 -750 Descending Jacksonville Center
Sun 02:04:19 PM 31.3556 -84.0264 132° Southeast 499 574 29,500 -650 Descending Jacksonville Center
Sun 02:05:19 PM 31.2647 -83.9086 132° Southeast 499 574 29,000 -167 Descending Jacksonville Center
Sun 02:07:19 PM 31.0806 -83.6664 132° Southeast 499 574 29,000  Level Jacksonville Center
Sun 02:08:19 PM 30.9853 -83.5444 132° Southeast 499 574 29,000  Level Jacksonville Center
Sun 02:09:19 PM 30.8897 -83.4228 132° Southeast 504 580 29,000  Level Jacksonville Center
Sun 02:10:19 PM 30.7983 -83.3014 131° Southeast 504 580 29,000 -50 Level Jacksonville Center
Sun 02:11:19 PM 30.6942 -83.1897 137° Southeast 499 574 28,900 -950 Descending Jacksonville Center
Sun 02:12:19 PM 30.5922 -83.0808 137° Southeast 499 574 27,100 -950 Descending Jacksonville Center
Sun 02:13:19 PM 30.4878 -82.9769 139° Southeast 494 568 27,000 -500 Descending Jacksonville Center
Sun 02:14:19 PM 30.3856 -82.8686 138° Southeast 494 568 26,100 -950 Descending Jacksonville Center
Sun 02:15:19 PM 30.2811 -82.7628 139° Southeast 494 568 25,100 -550 Descending Jacksonville Center
Sun 02:16:19 PM 30.1786 -82.6594 139° Southeast 494 568 25,000 -50 Descending Jacksonville Center
Sun 02:17:19 PM 30.0614 -82.5422 139° Southeast 494 568 25,000  Level Jacksonville Center
Sun 02:18:19 PM 29.9608 -82.4539 143° Southeast 499 574 25,000 -1,402 Level Jacksonville Center
Sun 02:24:27 PM 29.1920 -82.1730 143° Southeast 396 456 15,000 -1,671 Descending FlightAware ADS-B
Sun 02:25:12 PM 29.1140 -82.1460 163° South 392 451 13,500 -1,533 Descending FlightAware ADS-B
Sun 02:25:57 PM 29.0460 -82.1250 165° South 366 421 12,700 -1,950 Descending FlightAware ADS-B
Sun 02:26:32 PM 28.9900 -82.1050 163° South 313 360 10,900 -2,160 Descending FlightAware ADS-B
Sun 02:26:47 PM 28.9760 -82.0890 135° Southeast 306 352 10,900  Level FlightAware ADS-B
Sun 02:27:22 PM 28.9480 -82.0450 126° Southeast 305 351 10,900  Level FlightAware ADS-B
Sun 02:27:47 PM 28.9220 -82.0180 138° Southeast 10,900  Level FlightAware ADS-B
Sun 02:28:07 PM 28.9020 -81.9950 135° Southeast 300 345 10,900  Level FlightAware ADS-B
Sun 02:28:52 PM 28.8630 -81.9310 125° Southeast 305 351 10,900  Level FlightAware ADS-B
Sun 02:29:27 PM 28.8470 -81.8810 110° East 301 346 10,900 -189 Level FlightAware ADS-B
Sun 02:30:27 PM 28.8190 -81.7920 110° East 302 348 10,600 -640 Descending FlightAware ADS-B
Sun 02:30:42 PM 28.8060 -81.7830 149° Southeast 286 329 10,100 -1,400 Descending FlightAware ADS-B
Sun 02:30:57 PM 28.7960 -81.7560 113° Southeast 271 312 9,900 -1,067 Descending FlightAware ADS-B
Sun 02:31:27 PM 28.7870 -81.7200 106° East 253 291 9,300 -1,200 Descending FlightAware ADS-B
Sun 02:31:52 PM 28.7790 -81.6890 106° East 247 284 8,800 -1,200 Descending FlightAware ADS-B
Sun 02:32:17 PM 28.7720 -81.6590 105° East 242 278 8,300 -1,309 Descending FlightAware ADS-B
Sun 02:32:47 PM 28.7620 -81.6160 105° East 242 278 7,600 -1,300 Descending FlightAware ADS-B
Sun 02:33:17 PM 28.7530 -81.5800 106° East 237 273 7,000 -1,200 Descending FlightAware ADS-B
Sun 02:33:47 PM 28.7440 -81.5430 105° East 235 270 6,400 -1,091 Descending FlightAware ADS-B
Sun 02:34:12 PM 28.7380 -81.5150 104° East 235 270 6,000 -545 Descending FlightAware ADS-B
Sun 02:34:42 PM 28.7280 -81.4770 107° East 240 276 5,900 -150 Descending FlightAware ADS-B
Sun 02:34:52 PM 28.7260 -81.4650 101° East 235 270 5,900  Level FlightAware ADS-B
Sun 02:35:07 PM 28.7190 -81.4470 114° Southeast 231 266 5,900 -533 Level FlightAware ADS-B
Sun 02:35:37 PM 28.7010 -81.4160 123° Southeast 228 262 5,500 -900 Descending FlightAware ADS-B
Sun 02:35:47 PM 28.6940 -81.4060 129° Southeast 227 261 5,300 -1,050 Descending FlightAware ADS-B
Sun 02:36:17 PM 28.6770 -81.3770 124° Southeast 226 260 4,800 -1,000 Descending FlightAware ADS-B
Sun 02:36:47 PM 28.6560 -81.3510 133° Southeast 220 253 4,300 -1,000 Descending FlightAware ADS-B
Sun 02:37:17 PM 28.6330 -81.3270 138° Southeast 210 242 3,800 -1,200 Descending FlightAware ADS-B
Sun 02:37:42 PM 28.6160 -81.3080 136° Southeast 213 245 3,200 -1,350 Descending FlightAware ADS-B
Sun 02:37:57 PM 28.6050 -81.2950 134° Southeast 207 238 2,900 -800 Descending FlightAware ADS-B
Sun 02:38:27 PM 28.5820 -81.2800 150° Southeast 177 204 2,600 -655 Descending FlightAware ADS-B
Sun 02:38:52 PM 28.5610 -81.2790 178° South 165 190 2,300 -900 Descending FlightAware ADS-B
Sun 02:39:07 PM 28.5510 -81.2790 180° South 161 185 2,000 -933 Descending FlightAware ADS-B
Sun 02:39:37 PM 28.5280 -81.2780 178° South 145 167 1,600 -764 Descending FlightAware ADS-B
Sun 02:40:02 PM 28.5120 -81.2780 180° South 131 151 1,300 -750 Descending FlightAware ADS-B
Sun 02:40:17 PM 28.5020 -81.2780 180° South 132 152 1,100 -750 Descending FlightAware ADS-B
Sun 02:40:42 PM 28.4860 -81.2780 180° South 133 153 800 -667 Descending FlightAware ADS-B
Sun 02:41:02 PM 28.4720 -81.2780 180° South 133 153 600 -750 Descending FlightAware ADS-B
Sun 02:41:22 PM 28.4590 -81.2770 176° South 133 153 300 -900 Descending FlightAware ADS-B

Login

Don't have an account? Register now (free) for customized features, flight alerts, and more!